Archival Weather

Vermilion Rgnl

Danville, Illinois (KDNV)

Report from: Tuesday, March 26, 2024 7:15 AM CDT
Current time: Sunday, July 14, 2024 6:31 AM CDT

Current weather – Weather history – Daily summaries
Weather forecast

Temperature12.0°C (53.6°F)
Dew point10.3°C (50.5°F)
Winds 17 kts (8.7 m/s, 19.6 mph) South (180°)
Wind gusts 21 kts (10.8 m/s, 24.2 mph)
Visibility10 mi. (16.1 km)
Clouds Ceiling: Overcast 1,100 ft. (335 m)
Altimeter29.50 in.Hg (999 mB)
Relative humidity89 %
Density altitude306 ft. (93 m)
Remarks Fully automated report
Automated weather observing station with precipitation discriminator
Flight conditions Marginal Visual Meteorological Conditions
Raw dataKDNV 261215Z AUTO 18017G21KT 10SM OVC011 12/10 A2950 RMK AO2 T01200103
An error has occurred. This application may no longer respond until reloaded. Reload 🗙